Time;durP1;ratioP1;P1;durP2;ratioP2;P2;SDS_P1;SDS_P2;PMS_P1;PMS_P2;Temp;Humidity;BMP_temperature;BMP_pressure;BME280_temperature;BME280_humidity;BME280_pressure;Samples;Min_cycle;Max_cycle;Signal;HPM_P1;HPM_P2
2021/01/08 00:01:31;;;;;;;40.10;23.13;;;;;;;1.08;75.55;98550.41;2177914;81;21150;-76
2021/01/08 00:04:35;;;;;;;40.63;24.70;;;;;;;1.07;75.39;98546.96;2178973;81;21143;-76
2021/01/08 00:07:36;;;;;;;35.47;19.63;;;;;;;1.03;75.56;98548.92;2178761;81;21126;-77
2021/01/08 00:10:37;;;;;;;43.27;23.87;;;;;;;1.04;75.60;98548.52;2178652;81;21138;-76
2021/01/08 00:13:38;;;;;;;45.17;24.20;;;;;;;1.01;75.62;98553.12;2178782;81;21523;-77
2021/01/08 00:16:39;;;;;;;40.17;24.27;;;;;;;1.01;75.78;98550.95;2178350;81;21303;-76
2021/01/08 00:19:40;;;;;;;42.17;23.77;;;;;;;1.03;75.72;98546.36;2177899;81;21511;-77
2021/01/08 00:22:41;;;;;;;42.37;24.10;;;;;;;1.10;75.71;98544.93;2178174;81;21207;-77
2021/01/08 00:25:42;;;;;;;39.03;24.40;;;;;;;1.12;75.52;98550.61;2178118;81;21157;-77
2021/01/08 00:28:44;;;;;;;39.23;23.53;;;;;;;1.15;75.54;98548.58;2177906;81;21256;-77
2021/01/08 00:31:44;;;;;;;44.20;25.60;;;;;;;1.13;75.51;98539.92;2177606;81;21126;-77
2021/01/08 00:34:46;;;;;;;40.37;23.30;;;;;;;1.11;75.54;98543.72;2177913;81;21131;-77
2021/01/08 00:37:47;;;;;;;41.97;24.83;;;;;;;1.13;75.45;98547.64;2177895;81;21272;-76
2021/01/08 00:40:48;;;;;;;41.90;22.87;;;;;;;1.10;75.34;98548.38;2178296;81;21242;-76
2021/01/08 00:43:49;;;;;;;39.13;23.63;;;;;;;1.10;75.44;98540.67;2161828;81;21301;-76
2021/01/08 00:46:50;;;;;;;43.43;25.33;;;;;;;1.11;75.39;98544.13;2161517;82;21245;-76
2021/01/08 00:49:51;;;;;;;39.33;21.50;;;;;;;1.13;75.49;98538.23;2161389;82;21135;-77
2021/01/08 00:52:52;;;;;;;35.40;21.97;;;;;;;1.15;75.27;98537.02;2160552;82;21874;-77
2021/01/08 00:55:53;;;;;;;38.03;22.27;;;;;;;1.11;75.40;98534.72;2161291;82;21257;-76
2021/01/08 00:58:54;;;;;;;37.47;23.23;;;;;;;1.15;75.41;98543.03;2161418;82;21308;-76
2021/01/08 01:01:57;;;;;;;38.40;23.20;;;;;;;1.16;75.29;98539.66;2161255;82;21127;-77
2021/01/08 01:04:58;;;;;;;43.50;24.03;;;;;;;1.17;75.27;98546.55;2160623;82;21277;-76
2021/01/08 01:07:59;;;;;;;44.47;24.13;;;;;;;1.19;75.39;98545.33;2160053;82;21244;-76
2021/01/08 01:11:00;;;;;;;39.77;21.40;;;;;;;1.17;75.29;98540.13;2160329;82;21118;-77
2021/01/08 01:14:01;;;;;;;36.00;21.93;;;;;;;1.15;75.30;98539.59;2160335;82;21265;-76
2021/01/08 01:17:03;;;;;;;36.23;21.90;;;;;;;1.13;75.24;98542.09;2160621;82;21305;-76
2021/01/08 01:20:04;;;;;;;37.97;23.00;;;;;;;1.17;75.27;98539.25;2160658;82;21297;-76
2021/01/08 01:23:05;;;;;;;37.37;22.90;;;;;;;1.18;75.22;98538.44;2161457;82;21523;-76
2021/01/08 01:26:12;;;;;;;38.63;22.67;;;;;;;1.17;75.20;98539.25;2161488;82;21249;-76
2021/01/08 01:29:13;;;;;;;38.57;22.30;;;;;;;1.19;75.15;98537.22;2161153;82;21253;-76
2021/01/08 01:32:14;;;;;;;35.60;20.80;;;;;;;1.20;75.08;98537.69;2161518;82;21241;-75
2021/01/08 01:35:16;;;;;;;39.47;21.67;;;;;;;1.18;74.99;98535.86;2160929;82;21150;-76
2021/01/08 01:38:17;;;;;;;42.23;23.23;;;;;;;1.16;74.96;98539.66;2160423;82;21289;-75
2021/01/08 01:41:18;;;;;;;37.43;23.10;;;;;;;1.17;75.00;98537.55;2161038;81;21442;-76
2021/01/08 01:44:19;;;;;;;39.90;22.83;;;;;;;1.15;74.92;98540.47;2160532;82;21222;-76
2021/01/08 01:47:21;;;;;;;36.47;21.07;;;;;;;1.15;74.88;98542.16;2160882;82;21256;-76
2021/01/08 01:50:22;;;;;;;39.27;22.07;;;;;;;1.12;74.90;98536.48;2160257;82;21277;-76
2021/01/08 01:53:23;;;;;;;39.43;22.47;;;;;;;1.12;74.89;98538.16;2160526;82;21151;-76
2021/01/08 01:56:25;;;;;;;41.17;22.43;;;;;;;1.09;74.87;98535.46;2160443;82;21262;-76
2021/01/08 01:59:26;;;;;;;43.03;24.83;;;;;;;1.09;74.95;98537.63;2160318;82;21923;-76
2021/01/08 02:02:27;;;;;;;41.20;24.67;;;;;;;1.08;74.99;98539.72;2161359;82;21269;-76
2021/01/08 02:05:28;;;;;;;39.97;22.20;;;;;;;1.09;75.05;98541.48;2161168;82;21249;-77
2021/01/08 02:08:29;;;;;;;39.10;22.73;;;;;;;1.07;75.03;98535.80;2161192;82;21253;-76
2021/01/08 02:11:30;;;;;;;41.93;23.73;;;;;;;1.06;75.03;98543.92;2161273;82;21548;-76
2021/01/08 02:14:31;;;;;;;38.67;22.50;;;;;;;1.06;74.97;98539.19;2161250;82;21114;-76
2021/01/08 02:17:32;;;;;;;40.97;24.30;;;;;;;1.06;74.97;98537.90;2160751;82;21362;-76
2021/01/08 02:20:34;;;;;;;43.77;24.60;;;;;;;1.05;74.96;98543.85;2161329;82;21514;-76
2021/01/08 02:23:35;;;;;;;43.63;25.53;;;;;;;1.04;75.07;98542.97;2161484;82;21154;-76
2021/01/08 02:26:36;;;;;;;45.77;24.47;;;;;;;1.02;75.10;98539.86;2160920;82;21274;-76
2021/01/08 02:29:37;;;;;;;39.80;24.70;;;;;;;1.02;75.02;98546.28;2161339;82;21261;-76
2021/01/08 02:32:38;;;;;;;46.23;24.10;;;;;;;0.98;74.96;98537.56;2161282;82;21547;-77
2021/01/08 02:35:39;;;;;;;46.77;25.57;;;;;;;0.95;75.03;98546.02;2160573;82;21253;-77
2021/01/08 02:38:40;;;;;;;49.73;26.87;;;;;;;0.95;74.93;98540.00;2160548;82;21168;-77
2021/01/08 02:41:41;;;;;;;50.23;26.27;;;;;;;0.93;75.05;98543.78;2161148;82;21265;-76
2021/01/08 02:44:42;;;;;;;45.30;26.30;;;;;;;0.95;75.03;98547.70;2160963;82;21237;-77
2021/01/08 02:47:44;;;;;;;46.43;23.57;;;;;;;0.92;74.98;98541.14;2161010;82;21518;-76
2021/01/08 02:50:45;;;;;;;49.20;25.00;;;;;;;0.91;74.74;98532.96;2161149;82;21269;-76
2021/01/08 02:53:46;;;;;;;43.43;24.83;;;;;;;0.88;74.83;98534.11;2160274;82;21253;-76
2021/01/08 02:56:47;;;;;;;50.83;26.07;;;;;;;0.87;74.78;98535.80;2160882;82;21237;-76
2021/01/08 02:59:48;;;;;;;49.43;26.07;;;;;;;0.88;74.85;98532.83;2160523;82;21280;-76
2021/01/08 03:02:49;;;;;;;48.77;26.97;;;;;;;0.92;74.99;98530.86;2160759;82;21519;-76
2021/01/08 03:05:50;;;;;;;50.47;25.13;;;;;;;0.98;74.93;98529.85;2160855;82;21273;-76
2021/01/08 03:08:51;;;;;;;50.80;26.83;;;;;;;1.00;74.76;98532.08;2161013;82;21134;-76
2021/01/08 03:11:52;;;;;;;47.63;25.10;;;;;;;1.03;74.61;98529.65;2160834;82;21284;-76
2021/01/08 03:14:53;;;;;;;53.30;26.87;;;;;;;1.04;74.68;98528.84;2160213;82;21142;-76
2021/01/08 03:17:54;;;;;;;48.60;25.47;;;;;;;1.08;74.54;98528.56;2160181;82;21293;-77
2021/01/08 03:20:55;;;;;;;48.67;26.23;;;;;;;1.07;74.48;98534.11;2160344;82;21175;-77
2021/01/08 03:23:56;;;;;;;51.07;25.20;;;;;;;1.06;74.45;98527.21;2160583;82;21175;-77
2021/01/08 03:26:57;;;;;;;50.10;26.53;;;;;;;1.08;74.39;98526.88;2160757;82;21241;-77
2021/01/08 03:30:01;;;;;;;46.70;25.30;;;;;;;1.08;74.25;98528.16;2160865;82;21432;-76
2021/01/08 03:33:02;;;;;;;56.33;28.80;;;;;;;1.09;74.19;98529.03;2160619;82;21246;-77
2021/01/08 03:36:03;;;;;;;45.23;24.93;;;;;;;1.07;74.27;98526.40;2161240;82;21277;-77
2021/01/08 03:39:05;;;;;;;54.10;27.50;;;;;;;1.06;74.33;98521.19;2161142;82;21132;-78
2021/01/08 03:42:06;;;;;;;54.23;27.83;;;;;;;1.07;74.42;98521.66;2160888;82;21532;-77
2021/01/08 03:45:07;;;;;;;54.00;25.40;;;;;;;1.06;74.25;98519.50;2160898;82;21253;-76
2021/01/08 03:48:08;;;;;;;49.50;27.13;;;;;;;1.02;74.27;98518.02;2160438;82;21257;-76
2021/01/08 03:51:09;;;;;;;54.63;27.77;;;;;;;0.98;74.36;98518.28;2160267;82;21268;-76
2021/01/08 03:54:10;;;;;;;62.43;30.50;;;;;;;1.02;74.46;98517.61;2160035;82;21167;-76
2021/01/08 03:57:12;;;;;;;58.47;28.73;;;;;;;1.03;74.43;98507.80;2159969;82;21289;-76
2021/01/08 04:00:13;;;;;;;51.67;27.57;;;;;;;1.04;74.36;98509.97;2159817;82;21118;-77
2021/01/08 04:03:14;;;;;;;56.30;28.73;;;;;;;1.04;74.32;98515.98;2159467;82;21254;-76
2021/01/08 04:06:15;;;;;;;60.90;27.53;;;;;;;1.04;74.36;98515.11;2159620;82;21159;-77
2021/01/08 04:09:16;;;;;;;55.53;28.70;;;;;;;1.05;74.37;98513.89;2159781;82;21245;-76
2021/01/08 04:12:17;;;;;;;59.43;31.37;;;;;;;1.08;74.32;98503.73;2161076;82;21135;-77
2021/01/08 04:15:18;;;;;;;52.43;26.73;;;;;;;1.11;74.33;98506.84;2160989;82;21316;-77
2021/01/08 04:18:19;;;;;;;51.43;25.97;;;;;;;1.12;74.19;98508.60;2160650;82;21174;-77
2021/01/08 04:21:20;;;;;;;56.93;27.10;;;;;;;1.11;74.03;98507.72;2161437;82;21244;-77
2021/01/08 04:24:21;;;;;;;56.63;29.67;;;;;;;1.10;73.99;98514.97;2161102;82;21519;-76
2021/01/08 04:27:22;;;;;;;53.67;27.60;;;;;;;1.13;74.01;98518.95;2159737;82;21234;-76
2021/01/08 04:30:23;;;;;;;56.47;27.37;;;;;;;1.13;73.94;98523.22;2160310;82;21139;-76
2021/01/08 04:33:24;;;;;;;55.47;27.03;;;;;;;1.11;73.89;98525.72;2160093;82;21260;-76
2021/01/08 04:36:26;;;;;;;45.97;25.93;;;;;;;1.10;73.91;98526.94;2159928;82;21902;-77
2021/01/08 04:39:27;;;;;;;50.73;25.43;;;;;;;1.06;73.83;98524.64;2158838;82;21638;-77
2021/01/08 04:42:28;;;;;;;46.10;25.40;;;;;;;1.01;73.77;98527.41;2159087;81;21269;-79
2021/01/08 04:45:29;;;;;;;50.20;27.80;;;;;;;0.99;73.80;98535.47;2159400;82;21153;-77
2021/01/08 04:48:30;;;;;;;60.73;32.57;;;;;;;0.93;73.84;98532.63;2158526;82;21170;-76
2021/01/08 04:51:31;;;;;;;45.43;26.33;;;;;;;0.92;73.95;98533.03;2157422;82;21250;-76
2021/01/08 04:54:32;;;;;;;44.03;24.03;;;;;;;0.93;73.96;98536.48;2157899;82;21421;-77
2021/01/08 04:57:33;;;;;;;42.23;22.93;;;;;;;0.93;73.93;98532.22;2157495;82;21658;-76
2021/01/08 05:00:34;;;;;;;41.70;22.83;;;;;;;0.91;73.81;98534.25;2156605;82;21261;-77
2021/01/08 05:03:35;;;;;;;43.60;22.83;;;;;;;0.89;73.87;98541.89;2157709;82;21269;-76
2021/01/08 05:06:36;;;;;;;40.10;23.07;;;;;;;0.89;73.82;98538.44;2157309;82;21253;-76
2021/01/08 05:09:37;;;;;;;43.47;23.43;;;;;;;0.89;73.92;98541.01;2157416;82;21245;-76
2021/01/08 05:12:38;;;;;;;46.10;24.97;;;;;;;0.88;73.87;98538.84;2158060;82;21682;-77
2021/01/08 05:15:40;;;;;;;44.77;23.13;;;;;;;0.84;73.98;98533.06;2158199;82;21257;-76
2021/01/08 05:18:41;;;;;;;45.53;24.43;;;;;;;0.87;74.13;98537.49;2157941;82;21178;-78
2021/01/08 05:21:43;;;;;;;44.97;23.20;;;;;;;0.92;74.15;98543.72;2157873;82;21264;-77
2021/01/08 05:24:44;;;;;;;42.27;23.87;;;;;;;0.92;74.14;98545.00;2157620;82;21253;-77
2021/01/08 05:27:45;;;;;;;51.10;25.57;;;;;;;0.92;74.00;98537.29;2158063;82;21610;-77
2021/01/08 05:30:46;;;;;;;45.83;23.77;;;;;;;0.90;74.12;98542.77;2158234;82;21284;-77
2021/01/08 05:33:47;;;;;;;46.70;23.97;;;;;;;0.88;74.09;98535.39;2159030;82;21280;-77
2021/01/08 05:36:49;;;;;;;43.93;24.30;;;;;;;0.85;74.08;98539.08;2159642;82;21253;-77
2021/01/08 05:39:50;;;;;;;44.27;23.80;;;;;;;0.82;74.14;98534.69;2158840;82;21269;-76
2021/01/08 05:42:51;;;;;;;46.70;24.53;;;;;;;0.80;74.26;98544.02;2160725;81;21296;-77
2021/01/08 05:45:52;;;;;;;43.83;24.20;;;;;;;0.81;74.45;98548.75;2168924;82;21252;-78
2021/01/08 05:48:53;;;;;;;48.13;26.27;;;;;;;0.85;74.45;98542.94;2168239;82;21163;-77
2021/01/08 05:51:54;;;;;;;51.80;27.90;;;;;;;0.90;74.46;98544.05;2168806;82;21276;-76
2021/01/08 05:54:56;;;;;;;50.33;27.03;;;;;;;0.98;74.48;98541.41;2167302;82;21245;-77
2021/01/08 05:57:57;;;;;;;49.33;29.37;;;;;;;1.05;74.39;98542.16;2167618;82;21674;-75
2021/01/08 06:00:58;;;;;;;54.63;27.13;;;;;;;1.07;74.27;98545.67;2167832;82;21260;-77
2021/01/08 06:03:59;;;;;;;51.23;29.73;;;;;;;1.11;74.18;98541.14;2167297;82;21622;-76
2021/01/08 06:07:00;;;;;;;47.03;24.53;;;;;;;1.13;73.98;98542.09;2168026;82;21264;-77
2021/01/08 06:10:01;;;;;;;47.97;25.43;;;;;;;1.19;73.92;98549.19;2167837;82;21253;-76
2021/01/08 06:13:02;;;;;;;49.20;26.17;;;;;;;1.31;74.17;98543.70;2167682;82;21265;-77
2021/01/08 06:16:03;;;;;;;46.90;24.27;;;;;;;1.34;73.65;98539.97;2167186;82;21347;-77
2021/01/08 06:19:04;;;;;;;53.43;26.83;;;;;;;1.31;73.24;98547.15;2167541;82;21391;-77
2021/01/08 06:22:06;;;;;;;50.27;28.13;;;;;;;1.28;73.53;98550.47;2167324;82;21289;-77
2021/01/08 06:25:07;;;;;;;48.40;25.30;;;;;;;1.33;73.60;98560.08;2168064;82;21273;-77
2021/01/08 06:28:12;;;;;;;49.20;27.63;;;;;;;1.35;73.29;98558.05;2168134;82;21265;-76
2021/01/08 06:31:13;;;;;;;56.33;28.67;;;;;;;1.33;73.34;98554.52;2167390;82;21265;-78
2021/01/08 06:34:14;;;;;;;61.83;32.67;;;;;;;1.34;73.26;98555.41;2167982;82;21257;-78
2021/01/08 06:37:18;;;;;;;55.57;28.87;;;;;;;1.38;73.16;98558.58;2168475;82;21165;-76
2021/01/08 06:40:18;;;;;;;63.53;32.27;;;;;;;1.41;73.21;98558.71;2168067;82;21305;-77
2021/01/08 06:43:19;;;;;;;76.57;35.67;;;;;;;1.43;73.07;98558.37;2165375;81;21281;-77
2021/01/08 06:46:20;;;;;;;66.73;35.23;;;;;;;1.46;73.06;98555.52;2158535;82;21249;-77
2021/01/08 06:49:21;;;;;;;68.50;34.70;;;;;;;1.49;72.90;98559.92;2158000;82;21646;-76
2021/01/08 06:52:23;;;;;;;66.23;35.00;;;;;;;1.48;72.80;98561.61;2158353;82;21516;-77
2021/01/08 06:55:24;;;;;;;65.83;32.60;;;;;;;1.49;72.85;98563.77;2158326;82;21269;-79
2021/01/08 06:58:25;;;;;;;59.93;29.97;;;;;;;1.49;73.00;98568.52;2157350;82;21647;-77
2021/01/08 07:01:26;;;;;;;71.30;30.93;;;;;;;1.53;72.81;98566.55;2157333;82;21268;-77
2021/01/08 07:04:27;;;;;;;73.57;31.07;;;;;;;1.53;72.93;98569.12;2156744;82;21163;-80
2021/01/08 07:07:28;;;;;;;60.87;31.73;;;;;;;1.55;72.77;98573.92;2157306;82;21367;-76
2021/01/08 07:10:29;;;;;;;111.60;62.60;;;;;;;1.55;72.69;98574.33;2157364;82;21249;-77
2021/01/08 07:13:30;;;;;;;66.83;35.57;;;;;;;1.55;72.76;98579.47;2157822;82;21378;-76
2021/01/08 07:16:31;;;;;;;70.37;35.63;;;;;;;1.55;72.76;98584.61;2157794;82;21277;-76
2021/01/08 07:19:32;;;;;;;66.73;34.40;;;;;;;1.58;72.76;98587.32;2157944;82;21460;-77
2021/01/08 07:22:33;;;;;;;68.60;35.27;;;;;;;1.58;72.77;98582.17;2157866;82;21546;-76
2021/01/08 07:25:34;;;;;;;71.40;35.77;;;;;;;1.62;72.69;98580.61;2157205;82;21268;-76
2021/01/08 07:28:35;;;;;;;77.43;38.60;;;;;;;1.67;72.65;98577.83;2157230;82;21256;-78
2021/01/08 07:31:36;;;;;;;79.07;41.23;;;;;;;1.70;72.63;98583.10;2157416;82;21131;-77
2021/01/08 07:34:38;;;;;;;83.13;43.00;;;;;;;1.71;72.62;98581.88;2157019;82;21249;-76
2021/01/08 07:37:39;;;;;;;77.13;40.30;;;;;;;1.73;72.51;98584.11;2157642;82;21301;-76
2021/01/08 07:40:40;;;;;;;75.03;39.03;;;;;;;1.73;72.48;98580.66;2158104;82;21820;-76
2021/01/08 07:43:41;;;;;;;77.50;39.60;;;;;;;1.72;72.31;98578.90;2160503;81;21272;-76
2021/01/08 07:46:43;;;;;;;71.60;37.43;;;;;;;1.72;72.33;98579.78;2168161;82;21280;-77
2021/01/08 07:49:44;;;;;;;77.83;37.13;;;;;;;1.74;72.37;98580.75;2168566;82;21293;-77
2021/01/08 07:52:46;;;;;;;71.50;36.57;;;;;;;1.78;72.47;98579.19;2168818;82;21267;-75
2021/01/08 07:55:49;;;;;;;66.40;36.00;;;;;;;1.88;72.30;98578.34;2167670;82;21308;-76
2021/01/08 07:58:50;;;;;;;70.73;36.37;;;;;;;1.93;72.15;98591.81;2166857;82;21893;-76
2021/01/08 08:01:51;;;;;;;80.27;40.03;;;;;;;1.97;72.28;98593.70;2167365;82;21260;-77
2021/01/08 08:04:52;;;;;;;72.50;36.90;;;;;;;2.03;72.09;98592.26;2167488;82;21268;-76
2021/01/08 08:07:53;;;;;;;102.17;55.17;;;;;;;2.13;71.77;98590.53;2167692;82;21261;-77
2021/01/08 08:10:54;;;;;;;71.53;35.37;;;;;;;2.21;71.67;98602.02;2168194;82;21248;-77
2021/01/08 08:13:55;;;;;;;66.30;34.20;;;;;;;2.32;71.64;98601.57;2168559;82;21814;-77
2021/01/08 08:16:56;;;;;;;65.47;33.83;;;;;;;2.40;71.39;98601.06;2168702;82;21249;-79
2021/01/08 08:19:57;;;;;;;69.57;36.27;;;;;;;2.46;71.23;98601.30;2169066;82;21260;-79
2021/01/08 08:22:58;;;;;;;70.03;36.37;;;;;;;2.52;70.99;98600.25;2169651;82;21260;-79
2021/01/08 08:25:59;;;;;;;74.70;37.60;;;;;;;2.62;70.98;98603.22;2169099;82;21249;-80
2021/01/08 08:29:01;;;;;;;75.43;40.83;;;;;;;2.70;70.78;98597.55;2167922;82;21249;-77
2021/01/08 08:32:02;;;;;;;77.77;42.33;;;;;;;2.79;70.96;98602.17;2168495;82;21257;-78
2021/01/08 08:35:05;;;;;;;80.10;42.57;;;;;;;2.88;70.53;98600.83;2168654;82;21110;-76
2021/01/08 08:38:06;;;;;;;80.53;41.57;;;;;;;2.98;70.42;98596.89;2167460;82;21173;-77
2021/01/08 08:41:07;;;;;;;62.90;35.43;;;;;;;3.02;70.18;98600.05;2168203;82;21811;-77
2021/01/08 08:44:08;;;;;;;67.70;34.60;;;;;;;3.06;69.97;98597.18;2169706;81;21324;-77
2021/01/08 08:47:09;;;;;;;67.43;37.47;;;;;;;3.11;69.76;98600.81;2174866;82;21558;-77
2021/01/08 08:50:11;;;;;;;63.40;35.63;;;;;;;3.19;69.90;98604.14;2174428;82;21257;-77
2021/01/08 08:53:12;;;;;;;70.77;39.53;;;;;;;3.27;69.38;98602.25;2174819;81;21265;-76
2021/01/08 08:56:14;;;;;;;69.23;38.97;;;;;;;3.30;69.43;98604.53;2174675;81;21252;-76
2021/01/08 08:59:15;;;;;;;86.93;49.53;;;;;;;3.36;69.63;98600.00;2174747;81;21619;-76
2021/01/08 09:02:16;;;;;;;94.07;55.50;;;;;;;3.48;69.44;98597.48;2174107;81;21257;-77
2021/01/08 09:05:17;;;;;;;86.97;50.97;;;;;;;3.56;69.34;98600.33;2173471;81;21264;-77
2021/01/08 09:08:19;;;;;;;75.13;43.83;;;;;;;3.60;69.20;98593.16;2173576;81;21272;-78
2021/01/08 09:11:20;;;;;;;72.67;40.53;;;;;;;3.63;69.05;98595.86;2174565;82;21569;-78
2021/01/08 09:14:21;;;;;;;62.30;36.73;;;;;;;3.67;68.89;98595.13;2174092;81;21578;-77
2021/01/08 09:17:22;;;;;;;73.10;38.27;;;;;;;3.72;68.76;98587.14;2174309;81;21299;-77
2021/01/08 09:20:23;;;;;;;60.90;35.23;;;;;;;3.82;68.84;98594.38;2175265;82;21287;-79
2021/01/08 09:23:24;;;;;;;68.43;37.07;;;;;;;3.93;68.49;98596.44;2174840;81;21248;-77
2021/01/08 09:26:25;;;;;;;57.47;34.97;;;;;;;4.01;68.45;98592.41;2174008;81;21240;-78
2021/01/08 09:29:28;;;;;;;57.40;35.33;;;;;;;4.09;68.01;98590.96;2174483;81;21293;-77
2021/01/08 09:32:29;;;;;;;65.03;39.37;;;;;;;4.12;68.05;98590.64;2173447;81;21283;-77
2021/01/08 09:35:31;;;;;;;66.60;37.63;;;;;;;4.18;67.91;98591.67;2172503;81;21264;-77
2021/01/08 09:38:33;;;;;;;61.53;36.77;;;;;;;4.20;67.71;98589.61;2174786;81;21968;-78
2021/01/08 09:41:34;;;;;;;60.37;37.13;;;;;;;4.19;67.71;98581.80;2175946;82;21278;-79
2021/01/08 09:44:35;;;;;;;60.97;36.87;;;;;;;4.18;67.76;98587.39;2169915;81;21358;-77
2021/01/08 09:47:36;;;;;;;57.83;33.27;;;;;;;4.21;67.52;98577.16;2158302;82;21241;-77
2021/01/08 09:50:39;;;;;;;59.60;34.23;;;;;;;4.12;67.34;98591.06;2158205;82;21281;-77
2021/01/08 09:53:40;;;;;;;57.43;32.03;;;;;;;4.03;67.73;98582.59;2158314;82;21230;-78
2021/01/08 09:56:41;;;;;;;50.13;29.57;;;;;;;3.99;67.59;98582.44;2159127;82;21258;-80
2021/01/08 09:59:42;;;;;;;57.60;32.33;;;;;;;3.92;67.53;98585.64;2159769;82;21293;-78
2021/01/08 10:02:43;;;;;;;59.60;35.50;;;;;;;3.80;67.77;98582.23;2159244;82;21257;-78
2021/01/08 10:05:45;;;;;;;55.63;32.23;;;;;;;3.75;67.95;98582.08;2159822;82;21241;-78
2021/01/08 10:08:47;;;;;;;65.90;39.07;;;;;;;3.70;68.03;98587.50;2157974;82;21265;-79
2021/01/08 10:11:48;;;;;;;62.07;35.30;;;;;;;3.66;68.13;98588.22;2159879;82;21158;-78
2021/01/08 10:14:50;;;;;;;57.03;33.97;;;;;;;3.67;68.28;98577.06;2159072;82;21272;-78
2021/01/08 10:17:51;;;;;;;57.47;31.40;;;;;;;3.69;67.96;98579.29;2160373;82;21300;-78
2021/01/08 10:20:53;;;;;;;57.33;34.97;;;;;;;3.72;67.95;98578.10;2159457;82;21524;-79
2021/01/08 10:23:54;;;;;;;55.63;34.00;;;;;;;3.77;67.90;98574.39;2159096;82;21293;-78
2021/01/08 10:26:55;;;;;;;60.50;36.17;;;;;;;3.79;67.96;98572.32;2157373;82;21258;-78
2021/01/08 10:29:56;;;;;;;56.50;33.30;;;;;;;3.86;68.08;98571.23;2158587;82;21256;-78
2021/01/08 10:32:57;;;;;;;61.73;35.23;;;;;;;3.86;67.83;98568.24;2158485;82;21261;-78
2021/01/08 10:35:58;;;;;;;60.30;34.77;;;;;;;3.86;67.80;98565.66;2158413;82;21579;-82
2021/01/08 10:38:59;;;;;;;58.93;35.00;;;;;;;3.84;67.84;98564.73;2158085;82;21300;-78
2021/01/08 10:42:01;;;;;;;67.40;37.00;;;;;;;3.77;67.89;98562.77;2159212;82;21265;-78
2021/01/08 10:45:02;;;;;;;67.63;36.90;;;;;;;3.71;67.89;98557.39;2164984;81;21320;-79
2021/01/08 10:48:04;;;;;;;62.43;37.40;;;;;;;3.64;68.22;98553.73;2175575;81;21121;-79
2021/01/08 10:51:05;;;;;;;63.67;37.17;;;;;;;3.57;68.31;98551.77;2176596;81;21257;-79
2021/01/08 10:54:06;;;;;;;64.13;36.73;;;;;;;3.49;68.37;98554.49;2175750;81;21272;-79
2021/01/08 10:57:07;;;;;;;69.03;37.37;;;;;;;3.47;68.63;98557.43;2174825;81;21149;-79
2021/01/08 11:00:08;;;;;;;72.73;39.53;;;;;;;3.46;68.76;98559.52;2175682;81;21265;-79
2021/01/08 11:03:09;;;;;;;66.17;36.33;;;;;;;3.47;68.66;98558.72;2174212;81;21296;-80
2021/01/08 11:06:10;;;;;;;67.63;37.53;;;;;;;3.47;68.70;98562.18;2175190;81;21256;-80
2021/01/08 11:09:11;;;;;;;69.97;38.60;;;;;;;3.47;68.50;98560.02;2174913;81;21613;-79
2021/01/08 11:12:12;;;;;;;63.00;36.33;;;;;;;3.47;68.91;98564.76;2175140;81;21884;-80
2021/01/08 11:15:13;;;;;;;61.40;34.67;;;;;;;3.47;68.67;98563.47;2174984;81;21281;-80
2021/01/08 11:18:14;;;;;;;64.57;37.37;;;;;;;3.41;68.61;98561.05;2175527;81;21300;-78
2021/01/08 11:21:15;;;;;;;61.03;36.87;;;;;;;3.38;68.91;98553.20;2174644;81;21240;-78
2021/01/08 11:24:17;;;;;;;66.03;36.67;;;;;;;3.42;69.02;98549.91;2175922;81;21263;-79
2021/01/08 11:27:18;;;;;;;66.33;37.97;;;;;;;3.37;68.74;98552.73;2175925;82;21280;-79
2021/01/08 11:30:19;;;;;;;64.20;37.13;;;;;;;3.35;68.93;98555.67;2175282;81;21252;-79
2021/01/08 11:33:20;;;;;;;61.10;37.07;;;;;;;3.39;69.08;98554.96;2175626;81;21280;-79
2021/01/08 11:36:21;;;;;;;63.97;37.20;;;;;;;3.42;69.02;98561.52;2175818;82;21663;-80
2021/01/08 11:39:22;;;;;;;70.10;37.90;;;;;;;3.41;68.80;98554.60;2175233;81;21646;-78
2021/01/08 11:42:23;;;;;;;64.80;37.33;;;;;;;3.45;69.11;98557.75;2174627;82;21268;-79
2021/01/08 11:45:24;;;;;;;62.57;36.37;;;;;;;3.55;69.09;98561.16;2168454;81;21285;-79
2021/01/08 11:48:25;;;;;;;64.63;37.57;;;;;;;3.57;68.69;98552.17;2159422;82;21249;-79
2021/01/08 11:51:27;;;;;;;69.20;37.80;;;;;;;3.55;68.80;98554.70;2158586;82;21245;-77
2021/01/08 11:54:28;;;;;;;65.77;37.87;;;;;;;3.58;68.99;98550.94;2159458;82;21111;-79
2021/01/08 11:57:29;;;;;;;66.83;38.30;;;;;;;3.61;68.79;98551.45;2158019;82;21642;-79
2021/01/08 12:00:30;;;;;;;63.67;37.07;;;;;;;3.63;68.90;98549.39;2157815;82;21506;-79
2021/01/08 12:03:32;;;;;;;63.00;36.60;;;;;;;3.68;68.54;98554.71;2157254;82;21150;-78
2021/01/08 12:06:33;;;;;;;59.87;35.60;;;;;;;3.68;68.53;98559.46;2156913;82;21923;-78
2021/01/08 12:09:34;;;;;;;61.57;37.10;;;;;;;3.65;68.46;98560.64;2159080;82;22118;-80
2021/01/08 12:12:35;;;;;;;64.70;37.40;;;;;;;3.68;68.68;98560.75;2159045;82;21139;-79
2021/01/08 12:15:36;;;;;;;58.00;35.87;;;;;;;3.71;68.85;98564.73;2158511;82;21238;-78
2021/01/08 12:18:37;;;;;;;73.57;43.10;;;;;;;3.74;68.86;98562.25;2157946;82;21312;-80
2021/01/08 12:21:39;;;;;;;66.93;38.70;;;;;;;3.86;69.12;98558.33;2158829;82;21265;-80
2021/01/08 12:24:40;;;;;;;61.07;36.57;;;;;;;3.91;68.77;98563.23;2158487;82;21312;-80
2021/01/08 12:27:41;;;;;;;66.50;38.47;;;;;;;3.85;68.54;98556.16;2158602;82;21253;-80
2021/01/08 12:30:44;;;;;;;64.03;36.23;;;;;;;3.84;68.33;98550.12;2158267;82;21601;-79
2021/01/08 12:33:45;;;;;;;67.03;36.80;;;;;;;3.79;68.29;98551.67;2158954;82;21322;-79
2021/01/08 12:36:46;;;;;;;67.03;35.03;;;;;;;3.77;67.98;98544.28;2157910;82;21122;-80
2021/01/08 12:39:47;;;;;;;70.87;38.87;;;;;;;3.68;67.97;98546.55;2157047;82;21304;-80
2021/01/08 12:42:49;;;;;;;76.07;40.47;;;;;;;3.68;68.16;98549.55;2156858;82;21297;-78
2021/01/08 12:45:50;;;;;;;62.20;35.43;;;;;;;3.69;67.96;98548.31;2156755;81;21293;-80
2021/01/08 12:48:51;;;;;;;66.73;37.63;;;;;;;3.66;67.90;98547.33;2158076;82;21583;-80
2021/01/08 12:51:52;;;;;;;64.90;37.30;;;;;;;3.65;67.88;98544.28;2157663;82;21107;-80
2021/01/08 12:54:53;;;;;;;61.10;36.40;;;;;;;3.54;67.56;98549.08;2157296;82;21119;-77
2021/01/08 12:57:54;;;;;;;67.97;36.60;;;;;;;3.47;67.81;98550.56;2157598;82;21131;-77
2021/01/08 13:00:55;;;;;;;60.93;36.07;;;;;;;3.44;68.03;98543.09;2157144;82;21854;-77
2021/01/08 13:03:56;;;;;;;61.30;34.53;;;;;;;3.44;68.06;98546.55;2156520;82;21261;-78
2021/01/08 13:06:57;;;;;;;60.80;34.37;;;;;;;3.43;68.00;98551.25;2154529;82;21245;-77
2021/01/08 13:09:58;;;;;;;59.87;35.50;;;;;;;3.45;68.01;98546.14;2155434;82;21289;-77
2021/01/08 13:13:01;;;;;;;65.20;36.03;;;;;;;3.45;67.97;98553.89;2155982;82;21264;-78
2021/01/08 13:16:02;;;;;;;59.00;35.73;;;;;;;3.47;67.79;98549.69;2156173;82;21261;-77
2021/01/08 13:19:03;;;;;;;64.90;36.27;;;;;;;3.45;68.02;98548.31;2156959;82;21304;-78
2021/01/08 13:22:04;;;;;;;71.90;38.67;;;;;;;3.47;68.04;98546.70;2157001;82;21099;-76
2021/01/08 13:25:05;;;;;;;65.47;36.90;;;;;;;3.42;67.84;98544.34;2158057;82;21248;-80
2021/01/08 13:28:06;;;;;;;61.10;35.30;;;;;;;3.41;67.96;98533.55;2158736;82;21536;-76
2021/01/08 13:31:07;;;;;;;58.23;34.50;;;;;;;3.50;68.39;98535.19;2159757;82;21273;-79
2021/01/08 13:34:08;;;;;;;58.57;33.37;;;;;;;3.60;67.60;98543.25;2159139;82;21138;-79
2021/01/08 13:37:11;;;;;;;66.37;35.03;;;;;;;3.55;67.15;98540.92;2157532;81;21122;-78
2021/01/08 13:40:14;;;;;;;81.10;45.27;;;;;;;3.50;67.56;98544.22;2157009;82;21272;-79
2021/01/08 13:43:15;;;;;;;59.00;33.57;;;;;;;3.54;67.41;98545.20;2158271;82;21342;-79
2021/01/08 13:46:16;;;;;;;63.23;34.17;;;;;;;3.57;67.01;98550.89;2157964;82;21297;-79
2021/01/08 13:49:17;;;;;;;58.97;32.97;;;;;;;3.61;66.77;98547.58;2156739;82;21277;-78
2021/01/08 13:52:18;;;;;;;60.13;33.33;;;;;;;3.59;66.94;98546.24;2158156;82;21421;-79
2021/01/08 13:55:20;;;;;;;59.77;33.30;;;;;;;3.50;66.42;98549.38;2158212;82;21300;-78
2021/01/08 13:58:21;;;;;;;58.03;32.43;;;;;;;3.42;66.51;98550.78;2159074;82;21293;-78
2021/01/08 14:01:22;;;;;;;53.83;31.83;;;;;;;3.41;66.75;98552.02;2157625;82;21594;-76